sensor_id;sensor_type;location;lat;lon;timestamp;P1;durP1;ratioP1;P2;durP2;ratioP2
9942;SDS011;5010;45.080;7.634;2023-05-10T00:01:28;9.40;;;8.35;;
9942;SDS011;5010;45.080;7.634;2023-05-10T00:03:55;8.35;;;6.38;;
9942;SDS011;5010;45.080;7.634;2023-05-10T00:06:22;10.30;;;8.70;;
9942;SDS011;5010;45.080;7.634;2023-05-10T00:08:49;8.88;;;7.57;;
9942;SDS011;5010;45.080;7.634;2023-05-10T00:11:17;9.95;;;7.18;;
9942;SDS011;5010;45.080;7.634;2023-05-10T00:13:44;10.63;;;7.47;;
9942;SDS011;5010;45.080;7.634;2023-05-10T00:16:11;8.70;;;6.38;;
9942;SDS011;5010;45.080;7.634;2023-05-10T00:18:38;10.23;;;7.07;;
9942;SDS011;5010;45.080;7.634;2023-05-10T00:21:05;7.20;;;6.85;;
9942;SDS011;5010;45.080;7.634;2023-05-10T00:23:32;6.93;;;6.20;;
9942;SDS011;5010;45.080;7.634;2023-05-10T00:25:59;8.35;;;7.43;;
9942;SDS011;5010;45.080;7.634;2023-05-10T00:28:28;9.48;;;7.35;;
9942;SDS011;5010;45.080;7.634;2023-05-10T00:30:55;10.65;;;7.45;;
9942;SDS011;5010;45.080;7.634;2023-05-10T00:33:22;11.57;;;7.45;;
9942;SDS011;5010;45.080;7.634;2023-05-10T00:35:49;8.35;;;6.90;;
9942;SDS011;5010;45.080;7.634;2023-05-10T00:38:16;9.52;;;7.45;;
9942;SDS011;5010;45.080;7.634;2023-05-10T00:40:43;9.40;;;7.40;;
9942;SDS011;5010;45.080;7.634;2023-05-10T00:43:10;7.85;;;6.78;;
9942;SDS011;5010;45.080;7.634;2023-05-10T00:45:38;7.85;;;6.60;;
9942;SDS011;5010;45.080;7.634;2023-05-10T00:48:06;7.90;;;7.50;;
9942;SDS011;5010;45.080;7.634;2023-05-10T00:50:33;7.45;;;6.80;;
9942;SDS011;5010;45.080;7.634;2023-05-10T00:53:00;9.52;;;7.80;;
9942;SDS011;5010;45.080;7.634;2023-05-10T00:55:28;12.27;;;8.07;;
9942;SDS011;5010;45.080;7.634;2023-05-10T00:57:56;9.55;;;6.63;;
9942;SDS011;5010;45.080;7.634;2023-05-10T01:00:23;8.05;;;6.78;;
9942;SDS011;5010;45.080;7.634;2023-05-10T01:02:52;7.80;;;6.55;;
9942;SDS011;5010;45.080;7.634;2023-05-10T01:05:19;8.10;;;7.22;;
9942;SDS011;5010;45.080;7.634;2023-05-10T01:07:47;7.18;;;6.03;;
9942;SDS011;5010;45.080;7.634;2023-05-10T01:10:14;9.52;;;7.07;;
9942;SDS011;5010;45.080;7.634;2023-05-10T01:12:42;8.30;;;6.63;;
9942;SDS011;5010;45.080;7.634;2023-05-10T01:15:11;7.68;;;7.30;;
9942;SDS011;5010;45.080;7.634;2023-05-10T01:17:40;9.18;;;8.07;;
9942;SDS011;5010;45.080;7.634;2023-05-10T01:20:11;7.43;;;6.55;;
9942;SDS011;5010;45.080;7.634;2023-05-10T01:22:42;7.07;;;6.28;;
9942;SDS011;5010;45.080;7.634;2023-05-10T01:25:37;9.02;;;7.68;;
9942;SDS011;5010;45.080;7.634;2023-05-10T01:31:22;7.43;;;7.03;;
9942;SDS011;5010;45.080;7.634;2023-05-10T01:34:05;7.80;;;7.40;;
9942;SDS011;5010;45.080;7.634;2023-05-10T01:36:38;7.90;;;7.50;;
9942;SDS011;5010;45.080;7.634;2023-05-10T01:39:11;7.05;;;6.05;;
9942;SDS011;5010;45.080;7.634;2023-05-10T01:41:48;6.40;;;5.93;;
9942;SDS011;5010;45.080;7.634;2023-05-10T01:44:20;6.93;;;5.05;;
9942;SDS011;5010;45.080;7.634;2023-05-10T01:46:56;10.02;;;8.90;;
9942;SDS011;5010;45.080;7.634;2023-05-10T01:49:30;8.85;;;8.35;;
9942;SDS011;5010;45.080;7.634;2023-05-10T01:52:03;8.10;;;7.70;;
9942;SDS011;5010;45.080;7.634;2023-05-10T01:54:34;7.00;;;6.60;;
9942;SDS011;5010;45.080;7.634;2023-05-10T01:57:05;7.43;;;7.07;;
9942;SDS011;5010;45.080;7.634;2023-05-10T01:59:35;6.65;;;6.13;;
9942;SDS011;5010;45.080;7.634;2023-05-10T02:02:06;6.55;;;5.38;;
9942;SDS011;5010;45.080;7.634;2023-05-10T02:04:38;5.82;;;5.03;;
9942;SDS011;5010;45.080;7.634;2023-05-10T02:07:06;6.82;;;5.07;;
9942;SDS011;5010;45.080;7.634;2023-05-10T02:09:34;7.03;;;5.57;;
9942;SDS011;5010;45.080;7.634;2023-05-10T02:12:02;6.80;;;6.18;;
9942;SDS011;5010;45.080;7.634;2023-05-10T02:14:32;6.50;;;6.10;;
9942;SDS011;5010;45.080;7.634;2023-05-10T02:17:02;6.20;;;5.90;;
9942;SDS011;5010;45.080;7.634;2023-05-10T02:19:32;7.13;;;6.75;;
9942;SDS011;5010;45.080;7.634;2023-05-10T02:22:01;6.03;;;5.72;;
9942;SDS011;5010;45.080;7.634;2023-05-10T02:24:30;7.00;;;6.63;;
9942;SDS011;5010;45.080;7.634;2023-05-10T02:26:59;7.10;;;6.70;;
9942;SDS011;5010;45.080;7.634;2023-05-10T02:29:28;8.32;;;6.32;;
9942;SDS011;5010;45.080;7.634;2023-05-10T02:31:56;6.05;;;5.70;;
9942;SDS011;5010;45.080;7.634;2023-05-10T02:34:25;5.60;;;3.90;;
9942;SDS011;5010;45.080;7.634;2023-05-10T02:36:53;5.85;;;5.60;;
9942;SDS011;5010;45.080;7.634;2023-05-10T02:39:22;5.78;;;5.30;;
9942;SDS011;5010;45.080;7.634;2023-05-10T02:41:50;5.55;;;4.55;;
9942;SDS011;5010;45.080;7.634;2023-05-10T02:44:20;5.10;;;4.38;;
9942;SDS011;5010;45.080;7.634;2023-05-10T02:46:49;5.60;;;4.40;;
9942;SDS011;5010;45.080;7.634;2023-05-10T02:49:17;6.00;;;5.13;;
9942;SDS011;5010;45.080;7.634;2023-05-10T02:51:47;6.15;;;5.07;;
9942;SDS011;5010;45.080;7.634;2023-05-10T02:54:18;6.40;;;6.00;;
9942;SDS011;5010;45.080;7.634;2023-05-10T02:56:50;5.75;;;5.32;;
9942;SDS011;5010;45.080;7.634;2023-05-10T02:59:19;5.05;;;4.85;;
9942;SDS011;5010;45.080;7.634;2023-05-10T03:01:46;5.70;;;5.38;;
9942;SDS011;5010;45.080;7.634;2023-05-10T03:04:13;6.03;;;5.72;;
9942;SDS011;5010;45.080;7.634;2023-05-10T03:06:40;5.80;;;5.50;;
9942;SDS011;5010;45.080;7.634;2023-05-10T03:09:07;5.70;;;5.40;;
9942;SDS011;5010;45.080;7.634;2023-05-10T03:11:39;5.75;;;5.35;;
9942;SDS011;5010;45.080;7.634;2023-05-10T03:14:21;5.40;;;5.07;;
9942;SDS011;5010;45.080;7.634;2023-05-10T03:17:04;7.15;;;5.07;;
9942;SDS011;5010;45.080;7.634;2023-05-10T03:19:37;6.07;;;4.90;;
9942;SDS011;5010;45.080;7.634;2023-05-10T03:22:10;6.72;;;6.32;;
9942;SDS011;5010;45.080;7.634;2023-05-10T03:24:39;4.80;;;4.13;;
9942;SDS011;5010;45.080;7.634;2023-05-10T03:27:08;5.65;;;4.68;;
9942;SDS011;5010;45.080;7.634;2023-05-10T03:29:37;5.65;;;4.75;;
9942;SDS011;5010;45.080;7.634;2023-05-10T03:32:05;6.05;;;5.75;;
9942;SDS011;5010;45.080;7.634;2023-05-10T03:34:33;6.68;;;5.72;;
9942;SDS011;5010;45.080;7.634;2023-05-10T03:37:01;5.65;;;4.82;;
9942;SDS011;5010;45.080;7.634;2023-05-10T03:39:28;5.63;;;4.90;;
9942;SDS011;5010;45.080;7.634;2023-05-10T03:41:54;5.90;;;5.10;;
9942;SDS011;5010;45.080;7.634;2023-05-10T03:46:56;4.97;;;4.20;;
9942;SDS011;5010;45.080;7.634;2023-05-10T03:49:22;5.40;;;5.10;;
9942;SDS011;5010;45.080;7.634;2023-05-10T03:51:49;5.32;;;4.53;;
9942;SDS011;5010;45.080;7.634;2023-05-10T03:54:16;5.07;;;4.15;;
9942;SDS011;5010;45.080;7.634;2023-05-10T03:56:43;5.03;;;3.80;;
9942;SDS011;5010;45.080;7.634;2023-05-10T03:59:11;4.70;;;3.80;;
9942;SDS011;5010;45.080;7.634;2023-05-10T04:01:38;9.73;;;4.63;;
9942;SDS011;5010;45.080;7.634;2023-05-10T04:04:06;6.88;;;4.30;;
9942;SDS011;5010;45.080;7.634;2023-05-10T04:06:33;5.03;;;3.75;;
9942;SDS011;5010;45.080;7.634;2023-05-10T04:09:00;4.80;;;4.53;;
9942;SDS011;5010;45.080;7.634;2023-05-10T04:11:29;5.57;;;5.28;;
9942;SDS011;5010;45.080;7.634;2023-05-10T04:13:56;4.68;;;4.30;;
9942;SDS011;5010;45.080;7.634;2023-05-10T04:16:23;12.07;;;4.88;;
9942;SDS011;5010;45.080;7.634;2023-05-10T04:18:50;6.95;;;6.15;;
9942;SDS011;5010;45.080;7.634;2023-05-10T04:21:18;5.72;;;4.80;;
9942;SDS011;5010;45.080;7.634;2023-05-10T04:23:45;5.55;;;4.80;;
9942;SDS011;5010;45.080;7.634;2023-05-10T04:26:12;5.10;;;4.13;;
9942;SDS011;5010;45.080;7.634;2023-05-10T04:28:39;5.13;;;3.72;;
9942;SDS011;5010;45.080;7.634;2023-05-10T04:31:07;5.65;;;5.10;;
9942;SDS011;5010;45.080;7.634;2023-05-10T04:33:34;4.90;;;4.20;;
9942;SDS011;5010;45.080;7.634;2023-05-10T04:36:02;4.63;;;3.35;;
9942;SDS011;5010;45.080;7.634;2023-05-10T04:38:31;5.28;;;4.68;;
9942;SDS011;5010;45.080;7.634;2023-05-10T04:41:04;7.00;;;3.67;;
9942;SDS011;5010;45.080;7.634;2023-05-10T04:43:31;4.70;;;3.50;;
9942;SDS011;5010;45.080;7.634;2023-05-10T04:45:58;5.30;;;3.92;;
9942;SDS011;5010;45.080;7.634;2023-05-10T04:48:25;5.20;;;4.03;;
9942;SDS011;5010;45.080;7.634;2023-05-10T04:50:52;5.32;;;4.03;;
9942;SDS011;5010;45.080;7.634;2023-05-10T04:53:19;5.78;;;4.40;;
9942;SDS011;5010;45.080;7.634;2023-05-10T04:55:47;5.75;;;4.00;;
9942;SDS011;5010;45.080;7.634;2023-05-10T04:58:14;5.00;;;4.20;;
9942;SDS011;5010;45.080;7.634;2023-05-10T05:00:41;5.40;;;4.85;;
9942;SDS011;5010;45.080;7.634;2023-05-10T05:03:09;5.40;;;4.38;;
9942;SDS011;5010;45.080;7.634;2023-05-10T05:05:36;5.28;;;4.32;;
9942;SDS011;5010;45.080;7.634;2023-05-10T05:08:03;4.60;;;3.10;;
9942;SDS011;5010;45.080;7.634;2023-05-10T05:10:30;5.30;;;4.50;;
9942;SDS011;5010;45.080;7.634;2023-05-10T05:12:58;4.57;;;3.40;;
9942;SDS011;5010;45.080;7.634;2023-05-10T05:15:25;5.05;;;3.65;;
9942;SDS011;5010;45.080;7.634;2023-05-10T05:17:52;5.93;;;3.42;;
9942;SDS011;5010;45.080;7.634;2023-05-10T05:20:19;4.85;;;4.00;;
9942;SDS011;5010;45.080;7.634;2023-05-10T05:22:46;5.95;;;5.65;;
9942;SDS011;5010;45.080;7.634;2023-05-10T05:25:13;4.30;;;3.67;;
9942;SDS011;5010;45.080;7.634;2023-05-10T05:27:40;5.18;;;3.80;;
9942;SDS011;5010;45.080;7.634;2023-05-10T05:30:09;4.20;;;3.00;;
9942;SDS011;5010;45.080;7.634;2023-05-10T05:32:37;4.78;;;3.60;;
9942;SDS011;5010;45.080;7.634;2023-05-10T05:35:04;4.80;;;3.08;;
9942;SDS011;5010;45.080;7.634;2023-05-10T05:37:32;5.10;;;4.03;;
9942;SDS011;5010;45.080;7.634;2023-05-10T05:39:59;4.57;;;3.40;;
9942;SDS011;5010;45.080;7.634;2023-05-10T05:42:26;4.82;;;3.95;;
9942;SDS011;5010;45.080;7.634;2023-05-10T05:44:53;5.10;;;4.13;;
9942;SDS011;5010;45.080;7.634;2023-05-10T05:47:21;4.40;;;3.60;;
9942;SDS011;5010;45.080;7.634;2023-05-10T05:49:48;5.18;;;3.80;;
9942;SDS011;5010;45.080;7.634;2023-05-10T05:52:15;5.10;;;3.50;;
9942;SDS011;5010;45.080;7.634;2023-05-10T05:54:42;5.15;;;3.83;;
9942;SDS011;5010;45.080;7.634;2023-05-10T05:57:09;5.25;;;3.90;;
9942;SDS011;5010;45.080;7.634;2023-05-10T05:59:36;4.57;;;3.95;;
9942;SDS011;5010;45.080;7.634;2023-05-10T06:02:06;4.50;;;3.28;;
9942;SDS011;5010;45.080;7.634;2023-05-10T06:04:35;4.88;;;3.30;;
9942;SDS011;5010;45.080;7.634;2023-05-10T06:07:02;5.28;;;4.10;;
9942;SDS011;5010;45.080;7.634;2023-05-10T06:09:28;4.93;;;3.83;;
9942;SDS011;5010;45.080;7.634;2023-05-10T06:11:55;5.28;;;5.00;;
9942;SDS011;5010;45.080;7.634;2023-05-10T06:14:22;7.28;;;4.43;;
9942;SDS011;5010;45.080;7.634;2023-05-10T06:16:49;4.95;;;3.60;;
9942;SDS011;5010;45.080;7.634;2023-05-10T06:19:20;5.15;;;4.35;;
9942;SDS011;5010;45.080;7.634;2023-05-10T06:21:48;4.70;;;3.58;;
9942;SDS011;5010;45.080;7.634;2023-05-10T06:24:15;4.53;;;3.20;;
9942;SDS011;5010;45.080;7.634;2023-05-10T06:26:42;5.15;;;4.57;;
9942;SDS011;5010;45.080;7.634;2023-05-10T06:29:09;5.40;;;4.60;;
9942;SDS011;5010;45.080;7.634;2023-05-10T06:31:36;7.32;;;5.75;;
9942;SDS011;5010;45.080;7.634;2023-05-10T06:34:03;5.88;;;5.38;;
9942;SDS011;5010;45.080;7.634;2023-05-10T06:36:31;5.90;;;5.05;;
9942;SDS011;5010;45.080;7.634;2023-05-10T06:39:00;5.10;;;4.53;;
9942;SDS011;5010;45.080;7.634;2023-05-10T06:41:26;5.25;;;4.07;;
9942;SDS011;5010;45.080;7.634;2023-05-10T06:43:53;6.50;;;4.93;;
9942;SDS011;5010;45.080;7.634;2023-05-10T06:46:21;5.78;;;5.40;;
9942;SDS011;5010;45.080;7.634;2023-05-10T06:48:47;6.30;;;5.50;;
9942;SDS011;5010;45.080;7.634;2023-05-10T06:51:14;5.80;;;5.15;;
9942;SDS011;5010;45.080;7.634;2023-05-10T06:53:41;7.88;;;7.18;;
9942;SDS011;5010;45.080;7.634;2023-05-10T06:56:09;8.85;;;5.68;;
9942;SDS011;5010;45.080;7.634;2023-05-10T06:58:36;6.97;;;6.00;;
9942;SDS011;5010;45.080;7.634;2023-05-10T07:01:03;9.50;;;7.50;;
9942;SDS011;5010;45.080;7.634;2023-05-10T07:03:30;8.40;;;7.20;;
9942;SDS011;5010;45.080;7.634;2023-05-10T07:06:00;8.30;;;6.32;;
9942;SDS011;5010;45.080;7.634;2023-05-10T07:08:29;15.02;;;6.82;;
9942;SDS011;5010;45.080;7.634;2023-05-10T07:11:00;6.35;;;5.93;;
9942;SDS011;5010;45.080;7.634;2023-05-10T07:13:29;7.68;;;5.80;;
9942;SDS011;5010;45.080;7.634;2023-05-10T07:15:57;6.28;;;5.45;;
9942;SDS011;5010;45.080;7.634;2023-05-10T07:18:24;6.88;;;5.80;;
9942;SDS011;5010;45.080;7.634;2023-05-10T07:20:51;6.07;;;5.25;;
9942;SDS011;5010;45.080;7.634;2023-05-10T07:23:18;7.10;;;6.70;;
9942;SDS011;5010;45.080;7.634;2023-05-10T07:25:45;8.98;;;6.50;;
9942;SDS011;5010;45.080;7.634;2023-05-10T07:28:12;6.75;;;5.70;;
9942;SDS011;5010;45.080;7.634;2023-05-10T07:30:41;9.07;;;7.10;;
9942;SDS011;5010;45.080;7.634;2023-05-10T07:33:08;7.15;;;6.75;;
9942;SDS011;5010;45.080;7.634;2023-05-10T07:35:36;7.07;;;6.68;;
9942;SDS011;5010;45.080;7.634;2023-05-10T07:38:03;9.35;;;7.40;;
9942;SDS011;5010;45.080;7.634;2023-05-10T07:40:30;6.15;;;5.28;;
9942;SDS011;5010;45.080;7.634;2023-05-10T07:42:57;6.65;;;6.25;;
9942;SDS011;5010;45.080;7.634;2023-05-10T07:45:24;6.80;;;6.40;;
9942;SDS011;5010;45.080;7.634;2023-05-10T07:47:53;7.80;;;5.78;;
9942;SDS011;5010;45.080;7.634;2023-05-10T07:50:20;6.50;;;5.82;;
9942;SDS011;5010;45.080;7.634;2023-05-10T07:52:47;8.05;;;6.63;;
9942;SDS011;5010;45.080;7.634;2023-05-10T07:55:14;5.70;;;5.15;;
9942;SDS011;5010;45.080;7.634;2023-05-10T07:57:41;7.20;;;6.00;;
9942;SDS011;5010;45.080;7.634;2023-05-10T08:00:08;7.07;;;6.45;;
9942;SDS011;5010;45.080;7.634;2023-05-10T08:02:42;6.35;;;5.38;;
9942;SDS011;5010;45.080;7.634;2023-05-10T08:05:11;6.70;;;5.45;;
9942;SDS011;5010;45.080;7.634;2023-05-10T08:07:38;7.95;;;5.82;;
9942;SDS011;5010;45.080;7.634;2023-05-10T08:10:05;6.38;;;4.93;;
9942;SDS011;5010;45.080;7.634;2023-05-10T08:12:33;6.70;;;5.53;;
9942;SDS011;5010;45.080;7.634;2023-05-10T08:15:01;7.55;;;6.40;;
9942;SDS011;5010;45.080;7.634;2023-05-10T08:17:28;6.60;;;5.82;;
9942;SDS011;5010;45.080;7.634;2023-05-10T08:19:55;8.18;;;6.80;;
9942;SDS011;5010;45.080;7.634;2023-05-10T08:22:23;8.73;;;5.95;;
9942;SDS011;5010;45.080;7.634;2023-05-10T08:24:50;7.30;;;5.88;;
9942;SDS011;5010;45.080;7.634;2023-05-10T08:27:17;6.25;;;4.93;;
9942;SDS011;5010;45.080;7.634;2023-05-10T08:29:43;5.97;;;5.70;;
9942;SDS011;5010;45.080;7.634;2023-05-10T08:32:10;9.52;;;5.55;;
9942;SDS011;5010;45.080;7.634;2023-05-10T08:34:37;9.10;;;7.10;;
9942;SDS011;5010;45.080;7.634;2023-05-10T08:37:04;11.40;;;5.93;;
9942;SDS011;5010;45.080;7.634;2023-05-10T08:39:35;8.18;;;5.43;;
9942;SDS011;5010;45.080;7.634;2023-05-10T08:42:02;8.50;;;7.22;;
9942;SDS011;5010;45.080;7.634;2023-05-10T08:44:30;8.18;;;7.20;;
9942;SDS011;5010;45.080;7.634;2023-05-10T08:46:58;8.40;;;7.78;;
9942;SDS011;5010;45.080;7.634;2023-05-10T08:49:28;8.60;;;6.00;;
9942;SDS011;5010;45.080;7.634;2023-05-10T08:51:57;11.68;;;7.72;;
9942;SDS011;5010;45.080;7.634;2023-05-10T08:54:28;23.02;;;7.93;;
9942;SDS011;5010;45.080;7.634;2023-05-10T08:56:56;13.75;;;7.95;;
9942;SDS011;5010;45.080;7.634;2023-05-10T08:59:23;15.68;;;9.60;;
9942;SDS011;5010;45.080;7.634;2023-05-10T09:01:50;14.77;;;9.27;;
9942;SDS011;5010;45.080;7.634;2023-05-10T09:04:18;15.63;;;7.03;;
9942;SDS011;5010;45.080;7.634;2023-05-10T09:06:46;11.80;;;6.25;;
9942;SDS011;5010;45.080;7.634;2023-05-10T09:09:13;13.90;;;6.68;;
9942;SDS011;5010;45.080;7.634;2023-05-10T09:11:42;9.20;;;6.93;;
9942;SDS011;5010;45.080;7.634;2023-05-10T09:14:10;12.88;;;9.48;;
9942;SDS011;5010;45.080;7.634;2023-05-10T09:16:39;12.52;;;8.60;;
9942;SDS011;5010;45.080;7.634;2023-05-10T09:19:06;13.40;;;7.97;;
9942;SDS011;5010;45.080;7.634;2023-05-10T09:21:34;18.05;;;7.57;;
9942;SDS011;5010;45.080;7.634;2023-05-10T09:24:03;10.35;;;6.88;;
9942;SDS011;5010;45.080;7.634;2023-05-10T09:26:30;10.80;;;7.70;;
9942;SDS011;5010;45.080;7.634;2023-05-10T09:28:59;10.15;;;7.20;;
9942;SDS011;5010;45.080;7.634;2023-05-10T09:34:13;9.30;;;6.53;;
9942;SDS011;5010;45.080;7.634;2023-05-10T09:36:52;12.88;;;7.43;;
9942;SDS011;5010;45.080;7.634;2023-05-10T09:39:20;8.35;;;6.80;;
9942;SDS011;5010;45.080;7.634;2023-05-10T09:41:47;10.50;;;7.53;;
9942;SDS011;5010;45.080;7.634;2023-05-10T09:44:16;12.90;;;10.00;;
9942;SDS011;5010;45.080;7.634;2023-05-10T09:46:49;13.40;;;8.80;;
9942;SDS011;5010;45.080;7.634;2023-05-10T09:49:17;10.90;;;8.68;;
9942;SDS011;5010;45.080;7.634;2023-05-10T09:51:44;9.60;;;8.70;;
9942;SDS011;5010;45.080;7.634;2023-05-10T09:54:12;11.40;;;8.30;;
9942;SDS011;5010;45.080;7.634;2023-05-10T09:56:40;7.75;;;6.30;;
9942;SDS011;5010;45.080;7.634;2023-05-10T09:59:07;9.02;;;6.55;;
9942;SDS011;5010;45.080;7.634;2023-05-10T10:01:35;7.30;;;5.97;;
9942;SDS011;5010;45.080;7.634;2023-05-10T10:04:05;7.57;;;5.03;;
9942;SDS011;5010;45.080;7.634;2023-05-10T10:06:35;10.13;;;6.15;;
9942;SDS011;5010;45.080;7.634;2023-05-10T10:09:03;7.45;;;6.20;;
9942;SDS011;5010;45.080;7.634;2023-05-10T10:11:31;7.68;;;6.43;;
9942;SDS011;5010;45.080;7.634;2023-05-10T10:13:59;7.63;;;6.35;;
9942;SDS011;5010;45.080;7.634;2023-05-10T10:16:27;7.35;;;6.50;;
9942;SDS011;5010;45.080;7.634;2023-05-10T10:18:55;7.50;;;6.57;;
9942;SDS011;5010;45.080;7.634;2023-05-10T10:21:24;8.07;;;7.65;;
9942;SDS011;5010;45.080;7.634;2023-05-10T10:23:51;9.43;;;6.82;;
9942;SDS011;5010;45.080;7.634;2023-05-10T10:26:18;8.00;;;5.70;;
9942;SDS011;5010;45.080;7.634;2023-05-10T10:28:48;7.65;;;6.88;;
9942;SDS011;5010;45.080;7.634;2023-05-10T10:31:24;9.05;;;5.90;;
9942;SDS011;5010;45.080;7.634;2023-05-10T10:33:59;10.43;;;6.47;;
9942;SDS011;5010;45.080;7.634;2023-05-10T10:36:29;9.48;;;6.95;;
9942;SDS011;5010;45.080;7.634;2023-05-10T10:38:58;10.32;;;7.10;;
9942;SDS011;5010;45.080;7.634;2023-05-10T10:41:32;7.53;;;6.10;;
9942;SDS011;5010;45.080;7.634;2023-05-10T10:47:02;7.72;;;6.57;;
9942;SDS011;5010;45.080;7.634;2023-05-10T10:49:42;7.65;;;6.60;;
9942;SDS011;5010;45.080;7.634;2023-05-10T10:52:18;8.07;;;6.57;;
9942;SDS011;5010;45.080;7.634;2023-05-10T10:54:56;6.95;;;5.93;;
9942;SDS011;5010;45.080;7.634;2023-05-10T10:57:26;8.50;;;6.90;;
9942;SDS011;5010;45.080;7.634;2023-05-10T11:02:50;7.53;;;5.40;;
9942;SDS011;5010;45.080;7.634;2023-05-10T11:05:25;6.85;;;5.78;;
9942;SDS011;5010;45.080;7.634;2023-05-10T11:08:07;8.20;;;5.22;;
9942;SDS011;5010;45.080;7.634;2023-05-10T11:11:04;7.65;;;5.82;;
9942;SDS011;5010;45.080;7.634;2023-05-10T11:13:38;8.32;;;5.93;;
9942;SDS011;5010;45.080;7.634;2023-05-10T11:16:10;7.70;;;5.90;;
9942;SDS011;5010;45.080;7.634;2023-05-10T11:18:59;7.78;;;6.18;;
9942;SDS011;5010;45.080;7.634;2023-05-10T11:21:28;7.20;;;5.40;;
9942;SDS011;5010;45.080;7.634;2023-05-10T11:23:57;12.40;;;6.20;;
9942;SDS011;5010;45.080;7.634;2023-05-10T11:26:26;9.63;;;7.03;;
9942;SDS011;5010;45.080;7.634;2023-05-10T11:28:57;8.85;;;5.68;;
9942;SDS011;5010;45.080;7.634;2023-05-10T11:31:25;9.35;;;6.15;;
9942;SDS011;5010;45.080;7.634;2023-05-10T11:33:53;8.93;;;5.88;;
9942;SDS011;5010;45.080;7.634;2023-05-10T11:36:21;9.05;;;5.70;;
9942;SDS011;5010;45.080;7.634;2023-05-10T11:38:50;6.88;;;5.25;;
9942;SDS011;5010;45.080;7.634;2023-05-10T11:41:19;9.73;;;7.00;;
9942;SDS011;5010;45.080;7.634;2023-05-10T11:43:49;8.98;;;6.75;;
9942;SDS011;5010;45.080;7.634;2023-05-10T11:46:17;13.57;;;7.57;;
9942;SDS011;5010;45.080;7.634;2023-05-10T11:48:46;10.40;;;7.00;;
9942;SDS011;5010;45.080;7.634;2023-05-10T11:51:15;8.77;;;6.75;;
9942;SDS011;5010;45.080;7.634;2023-05-10T11:53:45;6.85;;;5.82;;
9942;SDS011;5010;45.080;7.634;2023-05-10T11:56:12;7.72;;;6.07;;
9942;SDS011;5010;45.080;7.634;2023-05-10T11:58:40;9.10;;;8.60;;
9942;SDS011;5010;45.080;7.634;2023-05-10T12:01:07;7.10;;;5.22;;
9942;SDS011;5010;45.080;7.634;2023-05-10T12:03:36;8.18;;;7.47;;
9942;SDS011;5010;45.080;7.634;2023-05-10T12:06:03;8.25;;;6.95;;
9942;SDS011;5010;45.080;7.634;2023-05-10T12:08:30;6.93;;;6.10;;
9942;SDS011;5010;45.080;7.634;2023-05-10T12:11:04;13.55;;;6.57;;
9942;SDS011;5010;45.080;7.634;2023-05-10T12:13:32;12.18;;;7.22;;
9942;SDS011;5010;45.080;7.634;2023-05-10T12:16:13;8.85;;;8.38;;
9942;SDS011;5010;45.080;7.634;2023-05-10T12:18:41;8.45;;;7.60;;
9942;SDS011;5010;45.080;7.634;2023-05-10T12:21:09;10.20;;;7.75;;
9942;SDS011;5010;45.080;7.634;2023-05-10T12:23:37;13.38;;;6.65;;
9942;SDS011;5010;45.080;7.634;2023-05-10T12:26:04;8.00;;;6.45;;
9942;SDS011;5010;45.080;7.634;2023-05-10T12:28:32;9.80;;;6.50;;
9942;SDS011;5010;45.080;7.634;2023-05-10T12:30:59;8.27;;;6.10;;
9942;SDS011;5010;45.080;7.634;2023-05-10T12:33:27;8.38;;;6.22;;
9942;SDS011;5010;45.080;7.634;2023-05-10T12:36:04;8.05;;;7.00;;
9942;SDS011;5010;45.080;7.634;2023-05-10T12:38:32;7.57;;;7.15;;
9942;SDS011;5010;45.080;7.634;2023-05-10T12:41:00;7.30;;;5.30;;
9942;SDS011;5010;45.080;7.634;2023-05-10T12:43:28;6.90;;;6.53;;
9942;SDS011;5010;45.080;7.634;2023-05-10T12:45:55;7.30;;;6.25;;
9942;SDS011;5010;45.080;7.634;2023-05-10T12:48:22;9.52;;;6.28;;
9942;SDS011;5010;45.080;7.634;2023-05-10T12:50:51;7.78;;;6.35;;
9942;SDS011;5010;45.080;7.634;2023-05-10T12:53:18;7.35;;;6.90;;
9942;SDS011;5010;45.080;7.634;2023-05-10T12:55:45;8.68;;;8.18;;
9942;SDS011;5010;45.080;7.634;2023-05-10T12:58:11;8.10;;;7.70;;
9942;SDS011;5010;45.080;7.634;2023-05-10T13:00:38;7.00;;;6.63;;
9942;SDS011;5010;45.080;7.634;2023-05-10T13:03:05;6.30;;;5.70;;
9942;SDS011;5010;45.080;7.634;2023-05-10T13:05:32;8.00;;;6.50;;
9942;SDS011;5010;45.080;7.634;2023-05-10T13:08:00;7.35;;;6.70;;
9942;SDS011;5010;45.080;7.634;2023-05-10T13:10:28;8.02;;;6.82;;
9942;SDS011;5010;45.080;7.634;2023-05-10T13:12:56;5.93;;;5.30;;
9942;SDS011;5010;45.080;7.634;2023-05-10T13:15:23;6.18;;;5.15;;
9942;SDS011;5010;45.080;7.634;2023-05-10T13:17:50;7.10;;;6.70;;
9942;SDS011;5010;45.080;7.634;2023-05-10T13:20:18;6.07;;;5.57;;
9942;SDS011;5010;45.080;7.634;2023-05-10T13:22:45;6.30;;;5.53;;
9942;SDS011;5010;45.080;7.634;2023-05-10T13:25:13;7.55;;;6.70;;
9942;SDS011;5010;45.080;7.634;2023-05-10T13:27:40;5.80;;;4.97;;
9942;SDS011;5010;45.080;7.634;2023-05-10T13:30:07;6.10;;;5.18;;
9942;SDS011;5010;45.080;7.634;2023-05-10T13:32:34;6.90;;;6.03;;
9942;SDS011;5010;45.080;7.634;2023-05-10T13:35:01;7.15;;;6.75;;
9942;SDS011;5010;45.080;7.634;2023-05-10T13:37:29;6.68;;;5.10;;
9942;SDS011;5010;45.080;7.634;2023-05-10T13:39:56;6.30;;;5.25;;
9942;SDS011;5010;45.080;7.634;2023-05-10T13:42:24;6.35;;;5.82;;
9942;SDS011;5010;45.080;7.634;2023-05-10T13:44:51;6.00;;;5.43;;
9942;SDS011;5010;45.080;7.634;2023-05-10T13:47:18;6.47;;;6.10;;
9942;SDS011;5010;45.080;7.634;2023-05-10T13:49:46;6.60;;;5.80;;
9942;SDS011;5010;45.080;7.634;2023-05-10T13:52:13;7.30;;;4.10;;
9942;SDS011;5010;45.080;7.634;2023-05-10T13:54:40;11.40;;;4.78;;
9942;SDS011;5010;45.080;7.634;2023-05-10T13:57:07;6.97;;;6.57;;
9942;SDS011;5010;45.080;7.634;2023-05-10T13:59:35;6.22;;;5.50;;
9942;SDS011;5010;45.080;7.634;2023-05-10T14:02:02;10.30;;;6.10;;
9942;SDS011;5010;45.080;7.634;2023-05-10T14:04:29;5.40;;;5.05;;
9942;SDS011;5010;45.080;7.634;2023-05-10T14:06:56;6.88;;;5.97;;
9942;SDS011;5010;45.080;7.634;2023-05-10T14:09:23;8.25;;;6.25;;
9942;SDS011;5010;45.080;7.634;2023-05-10T14:11:50;10.43;;;6.22;;
9942;SDS011;5010;45.080;7.634;2023-05-10T14:14:17;6.55;;;6.15;;
9942;SDS011;5010;45.080;7.634;2023-05-10T14:16:45;6.07;;;5.60;;
9942;SDS011;5010;45.080;7.634;2023-05-10T14:19:12;8.30;;;5.78;;
9942;SDS011;5010;45.080;7.634;2023-05-10T14:21:39;5.45;;;4.50;;
9942;SDS011;5010;45.080;7.634;2023-05-10T14:24:06;5.50;;;4.93;;
9942;SDS011;5010;45.080;7.634;2023-05-10T14:26:33;6.38;;;5.25;;
9942;SDS011;5010;45.080;7.634;2023-05-10T14:29:00;5.93;;;4.75;;
9942;SDS011;5010;45.080;7.634;2023-05-10T14:31:27;5.18;;;4.10;;
9942;SDS011;5010;45.080;7.634;2023-05-10T14:33:56;6.30;;;5.90;;
9942;SDS011;5010;45.080;7.634;2023-05-10T14:36:24;5.70;;;5.28;;
9942;SDS011;5010;45.080;7.634;2023-05-10T14:38:51;5.85;;;5.00;;
9942;SDS011;5010;45.080;7.634;2023-05-10T14:41:18;6.32;;;5.15;;
9942;SDS011;5010;45.080;7.634;2023-05-10T14:43:44;5.72;;;5.38;;
9942;SDS011;5010;45.080;7.634;2023-05-10T14:46:12;7.05;;;4.82;;
9942;SDS011;5010;45.080;7.634;2023-05-10T14:48:39;9.73;;;5.35;;
9942;SDS011;5010;45.080;7.634;2023-05-10T14:51:07;5.40;;;4.15;;
9942;SDS011;5010;45.080;7.634;2023-05-10T14:53:34;5.30;;;4.97;;
9942;SDS011;5010;45.080;7.634;2023-05-10T14:56:01;5.60;;;4.60;;
9942;SDS011;5010;45.080;7.634;2023-05-10T14:58:28;7.55;;;6.03;;
9942;SDS011;5010;45.080;7.634;2023-05-10T15:00:55;7.25;;;4.93;;
9942;SDS011;5010;45.080;7.634;2023-05-10T15:03:22;5.40;;;5.00;;
9942;SDS011;5010;45.080;7.634;2023-05-10T15:05:49;12.82;;;4.85;;
9942;SDS011;5010;45.080;7.634;2023-05-10T15:08:18;6.45;;;5.75;;
9942;SDS011;5010;45.080;7.634;2023-05-10T15:10:45;5.45;;;5.10;;
9942;SDS011;5010;45.080;7.634;2023-05-10T15:13:12;6.35;;;4.80;;
9942;SDS011;5010;45.080;7.634;2023-05-10T15:15:39;5.88;;;4.57;;
9942;SDS011;5010;45.080;7.634;2023-05-10T15:18:06;6.05;;;4.30;;
9942;SDS011;5010;45.080;7.634;2023-05-10T15:20:33;5.90;;;4.43;;
9942;SDS011;5010;45.080;7.634;2023-05-10T15:23:00;6.72;;;4.68;;
9942;SDS011;5010;45.080;7.634;2023-05-10T15:25:28;5.75;;;5.00;;
9942;SDS011;5010;45.080;7.634;2023-05-10T15:27:55;6.55;;;4.90;;
9942;SDS011;5010;45.080;7.634;2023-05-10T15:30:22;21.15;;;5.10;;
9942;SDS011;5010;45.080;7.634;2023-05-10T15:32:49;6.38;;;4.65;;
9942;SDS011;5010;45.080;7.634;2023-05-10T15:35:15;5.82;;;3.83;;